sensor_id;sensor_type;location;lat;lon;timestamp;temperature;humidity
10873;DHT22;34586;53.616;10.032;2023-08-21T00:00:22;17.20;99.90
10873;DHT22;34586;53.616;10.032;2023-08-21T00:02:48;17.10;99.90
10873;DHT22;34586;53.616;10.032;2023-08-21T00:05:14;17.10;99.90
10873;DHT22;34586;53.616;10.032;2023-08-21T00:07:39;17.10;99.90
10873;DHT22;34586;53.616;10.032;2023-08-21T00:10:05;17.10;99.90
10873;DHT22;34586;53.616;10.032;2023-08-21T00:12:31;17.10;99.90
10873;DHT22;34586;53.616;10.032;2023-08-21T00:14:57;17.00;99.90
10873;DHT22;34586;53.616;10.032;2023-08-21T00:17:23;17.00;99.90
10873;DHT22;34586;53.616;10.032;2023-08-21T00:19:49;17.00;99.90
10873;DHT22;34586;53.616;10.032;2023-08-21T00:22:14;17.00;99.90
10873;DHT22;34586;53.616;10.032;2023-08-21T00:24:40;16.90;99.90
10873;DHT22;34586;53.616;10.032;2023-08-21T00:27:05;16.90;99.90
10873;DHT22;34586;53.616;10.032;2023-08-21T00:29:31;16.90;99.90
10873;DHT22;34586;53.616;10.032;2023-08-21T00:31:57;16.90;99.90
10873;DHT22;34586;53.616;10.032;2023-08-21T00:34:22;16.90;99.90
10873;DHT22;34586;53.616;10.032;2023-08-21T00:36:48;16.90;99.90
10873;DHT22;34586;53.616;10.032;2023-08-21T00:39:13;16.80;99.90
10873;DHT22;34586;53.616;10.032;2023-08-21T00:41:39;16.80;99.90
10873;DHT22;34586;53.616;10.032;2023-08-21T00:44:05;16.80;99.90
10873;DHT22;34586;53.616;10.032;2023-08-21T00:46:31;16.80;99.90
10873;DHT22;34586;53.616;10.032;2023-08-21T00:48:57;16.70;99.90
10873;DHT22;34586;53.616;10.032;2023-08-21T00:51:23;16.70;99.90
10873;DHT22;34586;53.616;10.032;2023-08-21T00:53:49;16.70;99.90
10873;DHT22;34586;53.616;10.032;2023-08-21T00:56:15;16.70;99.90
10873;DHT22;34586;53.616;10.032;2023-08-21T00:58:41;16.70;99.90
10873;DHT22;34586;53.616;10.032;2023-08-21T01:01:08;16.60;99.90
10873;DHT22;34586;53.616;10.032;2023-08-21T01:03:33;16.60;99.90
10873;DHT22;34586;53.616;10.032;2023-08-21T01:05:59;16.60;99.90
10873;DHT22;34586;53.616;10.032;2023-08-21T01:11:23;16.50;99.90
10873;DHT22;34586;53.616;10.032;2023-08-21T01:13:55;16.50;99.90
10873;DHT22;34586;53.616;10.032;2023-08-21T01:16:24;16.50;99.90
10873;DHT22;34586;53.616;10.032;2023-08-21T01:18:51;16.50;99.90
10873;DHT22;34586;53.616;10.032;2023-08-21T01:21:18;16.50;99.90
10873;DHT22;34586;53.616;10.032;2023-08-21T01:23:44;16.50;99.90
10873;DHT22;34586;53.616;10.032;2023-08-21T01:26:10;16.50;99.90
10873;DHT22;34586;53.616;10.032;2023-08-21T01:28:36;16.40;99.90
10873;DHT22;34586;53.616;10.032;2023-08-21T01:31:08;16.40;99.90
10873;DHT22;34586;53.616;10.032;2023-08-21T01:33:40;16.40;99.90
10873;DHT22;34586;53.616;10.032;2023-08-21T01:36:08;16.30;99.90
10873;DHT22;34586;53.616;10.032;2023-08-21T01:38:34;16.40;99.90
10873;DHT22;34586;53.616;10.032;2023-08-21T01:41:01;16.30;99.90
10873;DHT22;34586;53.616;10.032;2023-08-21T01:43:27;16.30;99.90
10873;DHT22;34586;53.616;10.032;2023-08-21T01:45:53;16.30;99.90
10873;DHT22;34586;53.616;10.032;2023-08-21T01:48:18;16.30;99.90
10873;DHT22;34586;53.616;10.032;2023-08-21T01:50:44;16.30;99.90
10873;DHT22;34586;53.616;10.032;2023-08-21T01:53:09;16.20;99.90
10873;DHT22;34586;53.616;10.032;2023-08-21T01:55:35;16.20;99.90
10873;DHT22;34586;53.616;10.032;2023-08-21T01:58:00;16.20;99.90
10873;DHT22;34586;53.616;10.032;2023-08-21T02:00:26;16.20;99.90
10873;DHT22;34586;53.616;10.032;2023-08-21T02:02:51;16.20;99.90
10873;DHT22;34586;53.616;10.032;2023-08-21T02:05:17;16.20;99.90
10873;DHT22;34586;53.616;10.032;2023-08-21T02:07:43;16.20;99.90
10873;DHT22;34586;53.616;10.032;2023-08-21T02:10:08;16.20;99.90
10873;DHT22;34586;53.616;10.032;2023-08-21T02:12:34;16.20;99.90
10873;DHT22;34586;53.616;10.032;2023-08-21T02:15:00;16.10;99.90
10873;DHT22;34586;53.616;10.032;2023-08-21T02:17:29;16.10;99.90
10873;DHT22;34586;53.616;10.032;2023-08-21T02:19:55;16.10;99.90
10873;DHT22;34586;53.616;10.032;2023-08-21T02:22:20;16.10;99.90
10873;DHT22;34586;53.616;10.032;2023-08-21T02:24:46;16.10;99.90
10873;DHT22;34586;53.616;10.032;2023-08-21T02:27:12;16.10;99.90
10873;DHT22;34586;53.616;10.032;2023-08-21T02:29:37;16.10;99.90
10873;DHT22;34586;53.616;10.032;2023-08-21T02:32:03;16.10;99.90
10873;DHT22;34586;53.616;10.032;2023-08-21T02:34:29;16.00;99.90
10873;DHT22;34586;53.616;10.032;2023-08-21T02:36:54;16.10;99.90
10873;DHT22;34586;53.616;10.032;2023-08-21T02:39:20;15.90;99.90
10873;DHT22;34586;53.616;10.032;2023-08-21T02:41:46;16.00;99.90
10873;DHT22;34586;53.616;10.032;2023-08-21T02:44:11;15.90;99.90
10873;DHT22;34586;53.616;10.032;2023-08-21T02:46:37;16.00;99.90
10873;DHT22;34586;53.616;10.032;2023-08-21T02:49:02;16.00;99.90
10873;DHT22;34586;53.616;10.032;2023-08-21T02:51:28;15.90;99.90
10873;DHT22;34586;53.616;10.032;2023-08-21T02:53:53;16.00;99.90
10873;DHT22;34586;53.616;10.032;2023-08-21T02:56:19;16.00;99.90
10873;DHT22;34586;53.616;10.032;2023-08-21T02:58:45;16.00;99.90
10873;DHT22;34586;53.616;10.032;2023-08-21T03:01:10;16.00;99.90
10873;DHT22;34586;53.616;10.032;2023-08-21T03:03:37;15.90;99.90
10873;DHT22;34586;53.616;10.032;2023-08-21T03:06:02;16.00;99.90
10873;DHT22;34586;53.616;10.032;2023-08-21T03:08:28;16.00;99.90
10873;DHT22;34586;53.616;10.032;2023-08-21T03:10:53;16.00;99.90
10873;DHT22;34586;53.616;10.032;2023-08-21T03:13:19;16.00;99.90
10873;DHT22;34586;53.616;10.032;2023-08-21T03:15:45;16.00;99.90
10873;DHT22;34586;53.616;10.032;2023-08-21T03:18:10;15.80;99.90
10873;DHT22;34586;53.616;10.032;2023-08-21T03:20:36;16.00;99.90
10873;DHT22;34586;53.616;10.032;2023-08-21T03:23:01;15.70;99.90
10873;DHT22;34586;53.616;10.032;2023-08-21T03:25:28;15.90;99.90
10873;DHT22;34586;53.616;10.032;2023-08-21T03:27:53;15.90;99.90
10873;DHT22;34586;53.616;10.032;2023-08-21T03:30:19;15.90;99.90
10873;DHT22;34586;53.616;10.032;2023-08-21T03:32:45;15.90;99.90
10873;DHT22;34586;53.616;10.032;2023-08-21T03:35:11;15.90;99.90
10873;DHT22;34586;53.616;10.032;2023-08-21T03:37:37;15.90;99.90
10873;DHT22;34586;53.616;10.032;2023-08-21T03:40:03;15.90;99.90
10873;DHT22;34586;53.616;10.032;2023-08-21T03:42:29;15.90;99.90
10873;DHT22;34586;53.616;10.032;2023-08-21T03:44:55;15.90;99.90
10873;DHT22;34586;53.616;10.032;2023-08-21T03:47:20;15.80;99.90
10873;DHT22;34586;53.616;10.032;2023-08-21T03:49:46;15.80;99.90
10873;DHT22;34586;53.616;10.032;2023-08-21T03:52:13;15.80;99.90
10873;DHT22;34586;53.616;10.032;2023-08-21T03:54:39;15.80;99.90
10873;DHT22;34586;53.616;10.032;2023-08-21T03:57:04;15.80;99.90
10873;DHT22;34586;53.616;10.032;2023-08-21T03:59:30;15.80;99.90
10873;DHT22;34586;53.616;10.032;2023-08-21T04:01:56;15.80;99.90
10873;DHT22;34586;53.616;10.032;2023-08-21T04:04:21;15.80;99.90
10873;DHT22;34586;53.616;10.032;2023-08-21T04:06:47;15.70;99.90
10873;DHT22;34586;53.616;10.032;2023-08-21T04:09:12;15.70;99.90
10873;DHT22;34586;53.616;10.032;2023-08-21T04:11:38;15.70;99.90
10873;DHT22;34586;53.616;10.032;2023-08-21T04:14:04;15.70;99.90
10873;DHT22;34586;53.616;10.032;2023-08-21T04:16:29;15.70;99.90
10873;DHT22;34586;53.616;10.032;2023-08-21T04:18:56;15.70;99.90
10873;DHT22;34586;53.616;10.032;2023-08-21T04:21:22;15.70;99.90
10873;DHT22;34586;53.616;10.032;2023-08-21T04:23:48;15.70;99.90
10873;DHT22;34586;53.616;10.032;2023-08-21T04:26:13;15.80;99.90
10873;DHT22;34586;53.616;10.032;2023-08-21T04:28:39;15.80;99.90
10873;DHT22;34586;53.616;10.032;2023-08-21T04:31:05;15.70;99.90
10873;DHT22;34586;53.616;10.032;2023-08-21T04:33:32;15.70;99.90
10873;DHT22;34586;53.616;10.032;2023-08-21T04:35:59;15.70;99.90
10873;DHT22;34586;53.616;10.032;2023-08-21T04:38:25;15.70;99.90
10873;DHT22;34586;53.616;10.032;2023-08-21T04:40:50;15.70;99.90
10873;DHT22;34586;53.616;10.032;2023-08-21T04:43:16;15.80;99.90
10873;DHT22;34586;53.616;10.032;2023-08-21T04:45:49;15.80;99.90
10873;DHT22;34586;53.616;10.032;2023-08-21T04:48:20;15.80;99.90
10873;DHT22;34586;53.616;10.032;2023-08-21T04:50:46;15.80;99.90
10873;DHT22;34586;53.616;10.032;2023-08-21T04:53:12;15.90;99.90
10873;DHT22;34586;53.616;10.032;2023-08-21T04:55:39;16.00;99.90
10873;DHT22;34586;53.616;10.032;2023-08-21T04:58:06;15.90;99.90
10873;DHT22;34586;53.616;10.032;2023-08-21T05:00:32;15.90;99.90
10873;DHT22;34586;53.616;10.032;2023-08-21T05:02:57;16.00;99.90
10873;DHT22;34586;53.616;10.032;2023-08-21T05:05:23;16.10;99.90
10873;DHT22;34586;53.616;10.032;2023-08-21T05:07:49;16.10;99.90
10873;DHT22;34586;53.616;10.032;2023-08-21T05:10:14;16.20;99.90
10873;DHT22;34586;53.616;10.032;2023-08-21T05:12:40;16.30;99.90
10873;DHT22;34586;53.616;10.032;2023-08-21T05:15:06;16.30;99.90
10873;DHT22;34586;53.616;10.032;2023-08-21T05:17:32;16.40;99.90
10873;DHT22;34586;53.616;10.032;2023-08-21T05:19:57;16.40;99.90
10873;DHT22;34586;53.616;10.032;2023-08-21T05:22:23;16.50;99.90
10873;DHT22;34586;53.616;10.032;2023-08-21T05:24:49;16.50;99.90
10873;DHT22;34586;53.616;10.032;2023-08-21T05:27:14;16.60;99.90
10873;DHT22;34586;53.616;10.032;2023-08-21T05:29:40;16.60;99.90
10873;DHT22;34586;53.616;10.032;2023-08-21T05:32:05;16.60;99.90
10873;DHT22;34586;53.616;10.032;2023-08-21T05:34:31;16.70;99.90
10873;DHT22;34586;53.616;10.032;2023-08-21T05:36:57;16.80;99.90
10873;DHT22;34586;53.616;10.032;2023-08-21T05:39:23;16.80;99.90
10873;DHT22;34586;53.616;10.032;2023-08-21T05:41:48;16.90;99.90
10873;DHT22;34586;53.616;10.032;2023-08-21T05:44:14;16.90;99.90
10873;DHT22;34586;53.616;10.032;2023-08-21T05:46:39;17.00;99.90
10873;DHT22;34586;53.616;10.032;2023-08-21T05:49:05;17.00;99.90
10873;DHT22;34586;53.616;10.032;2023-08-21T05:51:30;17.10;99.90
10873;DHT22;34586;53.616;10.032;2023-08-21T05:53:56;17.20;99.90
10873;DHT22;34586;53.616;10.032;2023-08-21T05:56:22;17.30;99.90
10873;DHT22;34586;53.616;10.032;2023-08-21T05:58:49;17.30;99.90
10873;DHT22;34586;53.616;10.032;2023-08-21T06:01:14;17.40;99.90
10873;DHT22;34586;53.616;10.032;2023-08-21T06:03:40;17.50;99.90
10873;DHT22;34586;53.616;10.032;2023-08-21T06:06:06;17.50;99.90
10873;DHT22;34586;53.616;10.032;2023-08-21T06:08:31;17.60;99.90
10873;DHT22;34586;53.616;10.032;2023-08-21T06:10:57;17.70;99.90
10873;DHT22;34586;53.616;10.032;2023-08-21T06:13:22;17.70;99.90
10873;DHT22;34586;53.616;10.032;2023-08-21T06:15:48;17.80;99.90
10873;DHT22;34586;53.616;10.032;2023-08-21T06:18:14;17.80;99.90
10873;DHT22;34586;53.616;10.032;2023-08-21T06:20:43;17.90;99.90
10873;DHT22;34586;53.616;10.032;2023-08-21T06:23:09;18.00;99.90
10873;DHT22;34586;53.616;10.032;2023-08-21T06:25:36;18.10;99.90
10873;DHT22;34586;53.616;10.032;2023-08-21T06:28:01;18.10;99.90
10873;DHT22;34586;53.616;10.032;2023-08-21T06:30:27;18.20;99.90
10873;DHT22;34586;53.616;10.032;2023-08-21T06:32:53;18.20;99.90
10873;DHT22;34586;53.616;10.032;2023-08-21T06:35:19;18.30;99.90
10873;DHT22;34586;53.616;10.032;2023-08-21T06:37:44;18.30;99.90
10873;DHT22;34586;53.616;10.032;2023-08-21T06:40:10;18.40;99.90
10873;DHT22;34586;53.616;10.032;2023-08-21T06:42:36;18.40;99.90
10873;DHT22;34586;53.616;10.032;2023-08-21T06:45:04;18.50;99.90
10873;DHT22;34586;53.616;10.032;2023-08-21T06:47:29;18.60;99.90
10873;DHT22;34586;53.616;10.032;2023-08-21T06:49:55;18.60;99.90
10873;DHT22;34586;53.616;10.032;2023-08-21T06:52:21;18.70;99.90
10873;DHT22;34586;53.616;10.032;2023-08-21T06:54:46;18.80;99.90
10873;DHT22;34586;53.616;10.032;2023-08-21T06:57:12;18.80;99.90
10873;DHT22;34586;53.616;10.032;2023-08-21T06:59:37;18.80;99.90
10873;DHT22;34586;53.616;10.032;2023-08-21T07:02:03;18.90;99.90
10873;DHT22;34586;53.616;10.032;2023-08-21T07:04:29;18.90;99.90
10873;DHT22;34586;53.616;10.032;2023-08-21T07:06:55;18.90;99.90
10873;DHT22;34586;53.616;10.032;2023-08-21T07:09:20;19.00;99.90
10873;DHT22;34586;53.616;10.032;2023-08-21T07:11:46;19.00;99.90
10873;DHT22;34586;53.616;10.032;2023-08-21T07:14:11;19.00;99.90
10873;DHT22;34586;53.616;10.032;2023-08-21T07:16:39;19.10;99.90
10873;DHT22;34586;53.616;10.032;2023-08-21T07:19:05;19.10;99.90
10873;DHT22;34586;53.616;10.032;2023-08-21T07:21:31;19.10;99.90
10873;DHT22;34586;53.616;10.032;2023-08-21T07:23:56;19.20;99.90
10873;DHT22;34586;53.616;10.032;2023-08-21T07:26:22;19.30;99.90
10873;DHT22;34586;53.616;10.032;2023-08-21T07:28:48;19.30;99.90
10873;DHT22;34586;53.616;10.032;2023-08-21T07:31:13;19.40;99.90
10873;DHT22;34586;53.616;10.032;2023-08-21T07:33:39;19.40;99.90
10873;DHT22;34586;53.616;10.032;2023-08-21T07:36:05;19.50;99.90
10873;DHT22;34586;53.616;10.032;2023-08-21T07:38:32;19.50;99.90
10873;DHT22;34586;53.616;10.032;2023-08-21T07:41:04;19.60;99.90
10873;DHT22;34586;53.616;10.032;2023-08-21T07:43:31;19.70;99.90
10873;DHT22;34586;53.616;10.032;2023-08-21T07:45:57;19.70;99.90
10873;DHT22;34586;53.616;10.032;2023-08-21T07:48:22;19.80;99.90
10873;DHT22;34586;53.616;10.032;2023-08-21T07:50:52;19.80;99.90
10873;DHT22;34586;53.616;10.032;2023-08-21T07:53:18;19.90;99.90
10873;DHT22;34586;53.616;10.032;2023-08-21T07:55:44;19.90;99.90
10873;DHT22;34586;53.616;10.032;2023-08-21T07:58:11;19.90;99.90
10873;DHT22;34586;53.616;10.032;2023-08-21T08:00:37;19.90;99.90
10873;DHT22;34586;53.616;10.032;2023-08-21T08:03:03;19.90;99.90
10873;DHT22;34586;53.616;10.032;2023-08-21T08:05:29;20.00;99.90
10873;DHT22;34586;53.616;10.032;2023-08-21T08:07:54;20.00;99.90
10873;DHT22;34586;53.616;10.032;2023-08-21T08:10:20;20.00;99.90
10873;DHT22;34586;53.616;10.032;2023-08-21T08:12:45;20.10;99.90
10873;DHT22;34586;53.616;10.032;2023-08-21T08:15:11;20.10;99.90
10873;DHT22;34586;53.616;10.032;2023-08-21T08:17:36;20.10;99.90
10873;DHT22;34586;53.616;10.032;2023-08-21T08:20:02;20.10;99.90
10873;DHT22;34586;53.616;10.032;2023-08-21T08:22:28;20.10;99.90
10873;DHT22;34586;53.616;10.032;2023-08-21T08:24:53;20.20;61.60
10873;DHT22;34586;53.616;10.032;2023-08-21T08:27:19;20.30;97.00
10873;DHT22;34586;53.616;10.032;2023-08-21T08:29:44;20.30;29.80
10873;DHT22;34586;53.616;10.032;2023-08-21T08:32:10;20.30;1.00
10873;DHT22;34586;53.616;10.032;2023-08-21T08:34:35;20.40;30.50
10873;DHT22;34586;53.616;10.032;2023-08-21T08:37:01;20.40;1.00
10873;DHT22;34586;53.616;10.032;2023-08-21T08:39:26;20.50;1.00
10873;DHT22;34586;53.616;10.032;2023-08-21T08:42:05;20.50;1.00
10873;DHT22;34586;53.616;10.032;2023-08-21T08:44:35;20.50;1.00
10873;DHT22;34586;53.616;10.032;2023-08-21T08:47:01;20.50;1.00
10873;DHT22;34586;53.616;10.032;2023-08-21T08:49:27;20.50;1.00
10873;DHT22;34586;53.616;10.032;2023-08-21T08:51:54;20.60;1.00
10873;DHT22;34586;53.616;10.032;2023-08-21T08:54:21;20.60;1.00
10873;DHT22;34586;53.616;10.032;2023-08-21T08:56:47;20.60;1.00
10873;DHT22;34586;53.616;10.032;2023-08-21T08:59:13;20.70;1.00
10873;DHT22;34586;53.616;10.032;2023-08-21T09:01:41;20.80;1.00
10873;DHT22;34586;53.616;10.032;2023-08-21T09:04:07;20.80;1.00
10873;DHT22;34586;53.616;10.032;2023-08-21T09:06:33;20.80;1.00
10873;DHT22;34586;53.616;10.032;2023-08-21T09:08:59;20.80;1.00
10873;DHT22;34586;53.616;10.032;2023-08-21T09:11:25;20.80;99.90
10873;DHT22;34586;53.616;10.032;2023-08-21T09:13:52;20.90;1.00
10873;DHT22;34586;53.616;10.032;2023-08-21T09:16:19;20.90;99.90
10873;DHT22;34586;53.616;10.032;2023-08-21T09:18:56;21.00;99.90
10873;DHT22;34586;53.616;10.032;2023-08-21T09:21:23;21.00;99.90
10873;DHT22;34586;53.616;10.032;2023-08-21T09:23:57;21.00;99.90
10873;DHT22;34586;53.616;10.032;2023-08-21T09:26:24;21.00;1.00
10873;DHT22;34586;53.616;10.032;2023-08-21T09:28:51;21.10;99.90
10873;DHT22;34586;53.616;10.032;2023-08-21T09:31:22;21.20;82.20
10873;DHT22;34586;53.616;10.032;2023-08-21T09:33:55;21.20;99.90
10873;DHT22;34586;53.616;10.032;2023-08-21T09:36:22;21.30;99.90
10873;DHT22;34586;53.616;10.032;2023-08-21T09:38:48;21.40;1.00
10873;DHT22;34586;53.616;10.032;2023-08-21T09:41:13;21.50;99.90
10873;DHT22;34586;53.616;10.032;2023-08-21T09:43:42;21.60;1.00
10873;DHT22;34586;53.616;10.032;2023-08-21T09:46:08;21.60;1.00
10873;DHT22;34586;53.616;10.032;2023-08-21T09:48:34;21.60;1.00
10873;DHT22;34586;53.616;10.032;2023-08-21T09:51:00;21.60;1.00
10873;DHT22;34586;53.616;10.032;2023-08-21T09:53:29;21.60;1.00
10873;DHT22;34586;53.616;10.032;2023-08-21T09:55:55;21.60;1.00
10873;DHT22;34586;53.616;10.032;2023-08-21T09:58:21;21.60;1.20
10873;DHT22;34586;53.616;10.032;2023-08-21T10:00:48;21.60;1.00
10873;DHT22;34586;53.616;10.032;2023-08-21T10:03:19;21.60;1.00
10873;DHT22;34586;53.616;10.032;2023-08-21T10:05:47;21.60;99.90
10873;DHT22;34586;53.616;10.032;2023-08-21T10:08:15;21.70;99.90
10873;DHT22;34586;53.616;10.032;2023-08-21T10:10:41;21.80;1.00
10873;DHT22;34586;53.616;10.032;2023-08-21T10:13:08;21.80;1.00
10873;DHT22;34586;53.616;10.032;2023-08-21T10:15:35;21.70;1.00
10873;DHT22;34586;53.616;10.032;2023-08-21T10:18:25;21.70;1.00
10873;DHT22;34586;53.616;10.032;2023-08-21T10:20:54;21.80;99.90
10873;DHT22;34586;53.616;10.032;2023-08-21T10:23:28;21.80;99.90
10873;DHT22;34586;53.616;10.032;2023-08-21T10:26:03;21.90;99.90
10873;DHT22;34586;53.616;10.032;2023-08-21T10:28:59;21.90;99.90
10873;DHT22;34586;53.616;10.032;2023-08-21T10:31:29;21.90;99.90
10873;DHT22;34586;53.616;10.032;2023-08-21T10:33:55;22.00;64.90
10873;DHT22;34586;53.616;10.032;2023-08-21T10:39:18;22.20;99.90
10873;DHT22;34586;53.616;10.032;2023-08-21T10:41:56;22.20;99.90
10873;DHT22;34586;53.616;10.032;2023-08-21T10:49:56;22.30;99.90
10873;DHT22;34586;53.616;10.032;2023-08-21T10:52:27;22.40;1.00
10873;DHT22;34586;53.616;10.032;2023-08-21T10:54:55;22.40;1.00
10873;DHT22;34586;53.616;10.032;2023-08-21T10:57:26;22.40;99.90
10873;DHT22;34586;53.616;10.032;2023-08-21T10:59:57;22.50;99.90
10873;DHT22;34586;53.616;10.032;2023-08-21T11:02:24;22.50;85.10
10873;DHT22;34586;53.616;10.032;2023-08-21T11:04:51;22.60;99.90
10873;DHT22;34586;53.616;10.032;2023-08-21T11:07:17;22.70;99.90
10873;DHT22;34586;53.616;10.032;2023-08-21T11:09:43;22.70;99.90
10873;DHT22;34586;53.616;10.032;2023-08-21T11:12:13;22.70;99.90
10873;DHT22;34586;53.616;10.032;2023-08-21T11:14:40;22.70;1.00
10873;DHT22;34586;53.616;10.032;2023-08-21T11:17:06;22.70;99.90
10873;DHT22;34586;53.616;10.032;2023-08-21T11:19:33;22.70;99.90
10873;DHT22;34586;53.616;10.032;2023-08-21T11:21:59;22.80;99.90
10873;DHT22;34586;53.616;10.032;2023-08-21T11:27:04;22.80;99.90
10873;DHT22;34586;53.616;10.032;2023-08-21T11:32:18;22.80;20.30
10873;DHT22;34586;53.616;10.032;2023-08-21T11:34:51;22.90;65.00
10873;DHT22;34586;53.616;10.032;2023-08-21T11:37:19;22.90;1.00
10873;DHT22;34586;53.616;10.032;2023-08-21T11:39:49;23.00;1.00
10873;DHT22;34586;53.616;10.032;2023-08-21T11:42:16;22.90;1.00
10873;DHT22;34586;53.616;10.032;2023-08-21T11:47:12;22.90;81.80
10873;DHT22;34586;53.616;10.032;2023-08-21T11:49:41;22.90;1.00
10873;DHT22;34586;53.616;10.032;2023-08-21T11:52:08;23.10;1.00
10873;DHT22;34586;53.616;10.032;2023-08-21T11:54:35;23.30;1.00
10873;DHT22;34586;53.616;10.032;2023-08-21T11:57:04;23.40;1.00
10873;DHT22;34586;53.616;10.032;2023-08-21T11:59:30;23.50;1.00
10873;DHT22;34586;53.616;10.032;2023-08-21T12:01:56;23.60;1.00
10873;DHT22;34586;53.616;10.032;2023-08-21T12:04:21;23.70;1.00
10873;DHT22;34586;53.616;10.032;2023-08-21T12:06:47;23.80;99.90
10873;DHT22;34586;53.616;10.032;2023-08-21T12:09:13;23.80;1.00
10873;DHT22;34586;53.616;10.032;2023-08-21T12:11:38;23.80;1.00
10873;DHT22;34586;53.616;10.032;2023-08-21T12:14:05;23.90;1.00
10873;DHT22;34586;53.616;10.032;2023-08-21T12:16:30;23.70;99.90
10873;DHT22;34586;53.616;10.032;2023-08-21T12:18:56;23.80;1.00
10873;DHT22;34586;53.616;10.032;2023-08-21T12:21:24;24.00;1.00
10873;DHT22;34586;53.616;10.032;2023-08-21T12:23:50;24.40;1.00
10873;DHT22;34586;53.616;10.032;2023-08-21T12:26:16;24.60;1.00
10873;DHT22;34586;53.616;10.032;2023-08-21T12:28:48;25.00;1.00
10873;DHT22;34586;53.616;10.032;2023-08-21T12:31:14;25.50;99.90
10873;DHT22;34586;53.616;10.032;2023-08-21T12:33:40;26.30;99.90
10873;DHT22;34586;53.616;10.032;2023-08-21T12:36:06;27.40;99.90
10873;DHT22;34586;53.616;10.032;2023-08-21T12:38:34;28.40;1.00
10873;DHT22;34586;53.616;10.032;2023-08-21T12:41:00;28.90;1.00
10873;DHT22;34586;53.616;10.032;2023-08-21T12:43:26;28.90;1.00
10873;DHT22;34586;53.616;10.032;2023-08-21T12:45:52;28.10;1.00
10873;DHT22;34586;53.616;10.032;2023-08-21T12:48:17;28.20;99.90
10873;DHT22;34586;53.616;10.032;2023-08-21T12:50:43;29.00;99.90
10873;DHT22;34586;53.616;10.032;2023-08-21T12:53:08;29.10;1.00
10873;DHT22;34586;53.616;10.032;2023-08-21T12:55:34;28.70;1.00
10873;DHT22;34586;53.616;10.032;2023-08-21T12:57:59;28.50;1.00
10873;DHT22;34586;53.616;10.032;2023-08-21T13:00:25;28.10;1.00
10873;DHT22;34586;53.616;10.032;2023-08-21T13:02:51;27.80;1.00
10873;DHT22;34586;53.616;10.032;2023-08-21T13:05:16;27.50;99.90
10873;DHT22;34586;53.616;10.032;2023-08-21T13:07:42;27.80;99.90
10873;DHT22;34586;53.616;10.032;2023-08-21T13:10:08;28.10;99.90
10873;DHT22;34586;53.616;10.032;2023-08-21T13:12:34;28.40;99.90
10873;DHT22;34586;53.616;10.032;2023-08-21T13:15:00;28.30;1.00
10873;DHT22;34586;53.616;10.032;2023-08-21T13:17:26;27.80;99.90
10873;DHT22;34586;53.616;10.032;2023-08-21T13:19:52;28.00;1.00
10873;DHT22;34586;53.616;10.032;2023-08-21T13:22:18;27.70;99.90
10873;DHT22;34586;53.616;10.032;2023-08-21T13:24:43;27.70;1.00
10873;DHT22;34586;53.616;10.032;2023-08-21T13:27:09;27.60;1.00
10873;DHT22;34586;53.616;10.032;2023-08-21T13:29:35;27.40;1.00
10873;DHT22;34586;53.616;10.032;2023-08-21T13:32:01;27.80;1.00
10873;DHT22;34586;53.616;10.032;2023-08-21T13:34:26;27.40;99.90
10873;DHT22;34586;53.616;10.032;2023-08-21T13:36:52;27.50;1.00
10873;DHT22;34586;53.616;10.032;2023-08-21T13:39:18;27.70;1.00
10873;DHT22;34586;53.616;10.032;2023-08-21T13:41:43;27.70;1.00
10873;DHT22;34586;53.616;10.032;2023-08-21T13:44:09;27.80;1.00
10873;DHT22;34586;53.616;10.032;2023-08-21T13:46:35;27.70;1.00
10873;DHT22;34586;53.616;10.032;2023-08-21T13:49:00;27.80;1.00
10873;DHT22;34586;53.616;10.032;2023-08-21T13:51:26;27.80;1.00
10873;DHT22;34586;53.616;10.032;2023-08-21T13:53:51;27.80;1.00
10873;DHT22;34586;53.616;10.032;2023-08-21T13:56:17;28.00;1.00
10873;DHT22;34586;53.616;10.032;2023-08-21T13:58:43;28.20;1.00
10873;DHT22;34586;53.616;10.032;2023-08-21T14:01:08;28.50;99.90
10873;DHT22;34586;53.616;10.032;2023-08-21T14:03:34;28.60;99.90
10873;DHT22;34586;53.616;10.032;2023-08-21T14:06:00;28.70;1.00
10873;DHT22;34586;53.616;10.032;2023-08-21T14:08:26;28.70;99.90
10873;DHT22;34586;53.616;10.032;2023-08-21T14:10:51;28.70;99.90
10873;DHT22;34586;53.616;10.032;2023-08-21T14:13:17;28.70;99.90
10873;DHT22;34586;53.616;10.032;2023-08-21T14:15:42;28.60;99.90
10873;DHT22;34586;53.616;10.032;2023-08-21T14:18:08;28.60;99.90
10873;DHT22;34586;53.616;10.032;2023-08-21T14:20:34;28.70;1.00
10873;DHT22;34586;53.616;10.032;2023-08-21T14:23:00;28.40;99.90
10873;DHT22;34586;53.616;10.032;2023-08-21T14:25:26;28.20;99.90
10873;DHT22;34586;53.616;10.032;2023-08-21T14:27:51;28.00;83.00
10873;DHT22;34586;53.616;10.032;2023-08-21T14:30:17;27.70;99.90
10873;DHT22;34586;53.616;10.032;2023-08-21T14:32:42;27.40;99.90
10873;DHT22;34586;53.616;10.032;2023-08-21T14:35:08;27.00;99.90
10873;DHT22;34586;53.616;10.032;2023-08-21T14:37:37;26.70;1.00
10873;DHT22;34586;53.616;10.032;2023-08-21T14:40:04;26.60;69.90
10873;DHT22;34586;53.616;10.032;2023-08-21T14:42:33;26.60;99.90
10873;DHT22;34586;53.616;10.032;2023-08-21T14:44:59;26.50;99.90
10873;DHT22;34586;53.616;10.032;2023-08-21T14:47:25;26.40;1.00
10873;DHT22;34586;53.616;10.032;2023-08-21T14:49:50;26.30;1.00
10873;DHT22;34586;53.616;10.032;2023-08-21T14:52:17;26.30;1.00
10873;DHT22;34586;53.616;10.032;2023-08-21T14:54:42;26.40;99.90
10873;DHT22;34586;53.616;10.032;2023-08-21T14:57:08;26.30;99.90
10873;DHT22;34586;53.616;10.032;2023-08-21T14:59:34;26.20;1.00
10873;DHT22;34586;53.616;10.032;2023-08-21T15:01:59;26.20;99.90
10873;DHT22;34586;53.616;10.032;2023-08-21T15:04:25;26.00;1.00
10873;DHT22;34586;53.616;10.032;2023-08-21T15:06:50;25.90;99.90
10873;DHT22;34586;53.616;10.032;2023-08-21T15:09:17;25.80;1.00
10873;DHT22;34586;53.616;10.032;2023-08-21T15:11:42;25.80;99.90
10873;DHT22;34586;53.616;10.032;2023-08-21T15:14:11;25.70;1.00
10873;DHT22;34586;53.616;10.032;2023-08-21T15:16:37;25.60;1.00
10873;DHT22;34586;53.616;10.032;2023-08-21T15:19:03;25.50;99.90
10873;DHT22;34586;53.616;10.032;2023-08-21T15:21:29;25.50;99.90
10873;DHT22;34586;53.616;10.032;2023-08-21T15:23:54;25.40;99.90
10873;DHT22;34586;53.616;10.032;2023-08-21T15:26:21;25.40;1.00
10873;DHT22;34586;53.616;10.032;2023-08-21T15:28:47;25.30;47.50
10873;DHT22;34586;53.616;10.032;2023-08-21T15:31:13;25.20;99.90
10873;DHT22;34586;53.616;10.032;2023-08-21T15:33:38;25.10;1.00